Time;durP1;ratioP1;P1;durP2;ratioP2;P2;SDS_P1;SDS_P2;PMS_P1;PMS_P2;Temp;Humidity;BMP_temperature;BMP_pressure;BME280_temperature;BME280_humidity;BME280_pressure;Samples;Min_cycle;Max_cycle;Signal;HPM_P1;HPM_P2
2022/07/04 00:01:33;;;;;;;0.10;0.10;;;13.90;99.90;;;;;;5092559;28;20044;-85
2022/07/04 00:03:59;;;;;;;0.10;0.10;;;13.90;99.90;;;;;;5076277;28;20123;-86
2022/07/04 00:06:26;;;;;;;0.15;0.15;;;13.80;99.90;;;;;;5076684;28;20117;-85
2022/07/04 00:08:53;;;;;;;0.10;0.10;;;13.70;99.90;;;;;;5092553;28;20131;-86
2022/07/04 00:11:20;;;;;;;0.00;0.00;;;13.80;99.90;;;;;;5092858;28;20044;-87
2022/07/04 00:13:46;;;;;;;0.10;0.10;;;13.70;99.90;;;;;;5092771;28;20123;-86
2022/07/04 00:16:16;;;;;;;0.30;0.30;;;13.80;99.90;;;;;;5092704;28;20036;-86
2022/07/04 00:18:42;;;;;;;0.10;0.10;;;13.80;99.90;;;;;;5092744;28;20045;-85
2022/07/04 00:21:09;;;;;;;0.10;0.10;;;13.70;99.90;;;;;;5058464;28;20043;-86
2022/07/04 00:23:39;;;;;;;0.10;0.10;;;13.70;99.90;;;;;;5108569;28;20079;-86
2022/07/04 00:26:05;;;;;;;0.10;0.10;;;13.60;99.90;;;;;;5091503;28;20075;-86
2022/07/04 00:28:32;;;;;;;0.10;0.10;;;13.60;99.90;;;;;;5091482;28;20044;-86
2022/07/04 00:30:59;;;;;;;0.10;0.10;;;13.60;99.90;;;;;;5091437;28;20103;-85
2022/07/04 00:33:25;;;;;;;0.00;0.00;;;13.50;99.90;;;;;;5091285;28;20040;-86
2022/07/04 00:35:52;;;;;;;0.00;0.00;;;13.50;99.90;;;;;;5091499;28;20119;-86
2022/07/04 00:38:19;;;;;;;0.10;0.10;;;13.50;99.90;;;;;;5091603;28;20443;-85
2022/07/04 00:40:45;;;;;;;0.10;0.10;;;13.40;99.90;;;;;;5091401;28;20041;-85
2022/07/04 00:43:12;;;;;;;0.20;0.20;;;13.40;99.90;;;;;;5091256;28;20061;-85
2022/07/04 00:45:39;;;;;;;0.10;0.10;;;13.40;99.90;;;;;;5091573;28;20569;-86
2022/07/04 00:48:06;;;;;;;0.13;0.13;;;13.30;99.90;;;;;;5091579;28;20413;-87
2022/07/04 00:50:32;;;;;;;0.20;0.20;;;13.30;99.90;;;;;;5075604;28;20041;-86
2022/07/04 00:53:00;;;;;;;0.10;0.10;;;13.30;99.90;;;;;;5074341;28;20405;-85
2022/07/04 00:55:27;;;;;;;0.10;0.10;;;13.30;99.90;;;;;;5107552;28;20497;-86
2022/07/04 00:57:54;;;;;;;0.35;0.20;;;13.30;99.90;;;;;;5107770;28;20052;-86
2022/07/04 01:00:21;;;;;;;0.13;0.13;;;13.30;99.90;;;;;;5090967;28;20489;-85
2022/07/04 01:02:47;;;;;;;0.10;0.10;;;13.30;99.90;;;;;;5091363;28;20409;-86
2022/07/04 01:05:14;;;;;;;0.22;0.22;;;13.30;99.90;;;;;;5107179;28;20044;-86
2022/07/04 01:07:42;;;;;;;0.10;0.10;;;13.30;99.90;;;;;;5107138;28;20040;-85
2022/07/04 01:10:09;;;;;;;0.10;0.10;;;13.30;99.90;;;;;;5107631;28;20040;-87
2022/07/04 01:12:37;;;;;;;0.20;0.20;;;13.30;99.90;;;;;;5090826;28;20037;-86
2022/07/04 01:15:05;;;;;;;0.10;0.10;;;13.30;99.90;;;;;;5106559;28;20044;-86
2022/07/04 01:17:32;;;;;;;0.15;0.15;;;13.20;99.90;;;;;;5090901;28;20123;-85
2022/07/04 01:19:58;;;;;;;0.20;0.20;;;13.20;99.90;;;;;;5090686;28;20119;-86
2022/07/04 01:22:25;;;;;;;0.08;0.08;;;13.20;99.90;;;;;;5090953;28;20040;-86
2022/07/04 01:24:52;;;;;;;0.10;0.10;;;13.20;99.90;;;;;;5106949;28;20040;-86
2022/07/04 01:27:19;;;;;;;0.00;0.00;;;13.20;99.90;;;;;;5090371;28;20394;-86
2022/07/04 01:29:46;;;;;;;0.28;0.20;;;13.10;99.90;;;;;;5090134;28;20078;-86
2022/07/04 01:32:13;;;;;;;0.00;0.00;;;13.10;99.90;;;;;;5057336;28;20047;-86
2022/07/04 01:34:40;;;;;;;0.47;0.20;;;13.00;99.90;;;;;;5090519;28;20083;-86
2022/07/04 01:37:07;;;;;;;0.10;0.10;;;13.00;99.90;;;;;;5107419;28;20043;-86
2022/07/04 01:39:33;;;;;;;0.10;0.10;;;13.00;99.90;;;;;;5091310;28;20528;-86
2022/07/04 01:42:00;;;;;;;0.10;0.08;;;12.90;99.90;;;;;;5090950;28;20040;-86
2022/07/04 01:44:27;;;;;;;0.10;0.10;;;12.90;99.90;;;;;;5090613;28;20522;-86
2022/07/04 01:46:54;;;;;;;0.20;0.20;;;12.90;99.90;;;;;;5090279;28;20505;-86
2022/07/04 01:49:21;;;;;;;0.10;0.10;;;12.90;99.90;;;;;;5090337;28;20044;-85
2022/07/04 01:51:49;;;;;;;0.22;0.20;;;12.80;99.90;;;;;;5090047;28;20048;-85
2022/07/04 01:54:16;;;;;;;0.10;0.10;;;12.80;99.90;;;;;;5090395;28;20131;-86
2022/07/04 01:56:43;;;;;;;0.22;0.20;;;12.80;99.90;;;;;;5090167;28;20071;-86
2022/07/04 01:59:10;;;;;;;0.10;0.10;;;12.80;99.90;;;;;;5106809;28;20573;-86
2022/07/04 02:01:38;;;;;;;0.20;0.10;;;12.80;99.90;;;;;;5107550;28;20094;-85
2022/07/04 02:04:06;;;;;;;0.40;0.28;;;12.80;99.90;;;;;;5091083;28;20036;-87
2022/07/04 02:06:33;;;;;;;0.10;0.10;;;12.70;99.90;;;;;;5090728;28;20040;-87
2022/07/04 02:09:15;;;;;;;0.10;0.10;;;12.70;99.90;;;;;;5107187;28;20113;-86
2022/07/04 02:14:30;;;;;;;0.15;0.10;;;12.70;99.90;;;;;;5090483;28;20448;-87
2022/07/04 02:16:57;;;;;;;0.13;0.13;;;12.70;99.90;;;;;;5057492;28;20052;-86
2022/07/04 02:19:23;;;;;;;0.10;0.10;;;12.70;99.90;;;;;;5091023;28;20477;-86
2022/07/04 02:21:51;;;;;;;0.05;0.03;;;12.70;99.90;;;;;;5090391;28;20044;-86
2022/07/04 02:24:19;;;;;;;0.10;0.10;;;12.70;99.90;;;;;;5090586;28;20048;-86
2022/07/04 02:26:47;;;;;;;0.45;0.17;;;12.70;99.90;;;;;;5107341;28;20047;-86
2022/07/04 02:29:14;;;;;;;0.30;0.20;;;12.60;99.90;;;;;;5086644;28;20057;-86
2022/07/04 02:31:41;;;;;;;0.10;0.10;;;12.60;99.90;;;;;;5087088;28;20788;-86
2022/07/04 02:34:07;;;;;;;0.20;0.20;;;12.50;99.90;;;;;;5086523;28;20040;-86
2022/07/04 02:36:34;;;;;;;0.10;0.10;;;12.50;99.90;;;;;;5087396;28;20472;-85
2022/07/04 02:39:01;;;;;;;0.20;0.10;;;12.50;99.90;;;;;;5070093;28;20508;-86
2022/07/04 02:41:28;;;;;;;0.20;0.20;;;12.40;99.90;;;;;;5086557;28;20045;-87
2022/07/04 02:43:54;;;;;;;0.20;0.20;;;12.40;99.90;;;;;;5086608;28;20041;-86
2022/07/04 02:46:22;;;;;;;0.10;0.10;;;12.40;99.90;;;;;;5070065;28;20482;-86
2022/07/04 02:48:49;;;;;;;0.28;0.20;;;12.40;99.90;;;;;;5103641;28;20041;-87
2022/07/04 02:51:16;;;;;;;0.25;0.25;;;12.30;99.90;;;;;;5086645;28;20473;-86
2022/07/04 02:53:43;;;;;;;0.10;0.10;;;12.30;99.90;;;;;;5069865;28;20141;-86
2022/07/04 02:56:09;;;;;;;0.13;0.13;;;12.30;99.90;;;;;;5086296;28;20375;-86
2022/07/04 02:58:36;;;;;;;0.10;0.10;;;12.30;99.90;;;;;;5069815;28;20406;-86
2022/07/04 03:01:03;;;;;;;0.10;0.10;;;12.30;99.90;;;;;;5085992;28;20827;-86
2022/07/04 03:03:29;;;;;;;0.10;0.10;;;12.30;99.90;;;;;;5103174;28;20102;-87
2022/07/04 03:05:56;;;;;;;0.10;0.10;;;12.30;99.90;;;;;;5086545;28;20040;-85
2022/07/04 03:08:23;;;;;;;0.28;0.28;;;12.30;99.90;;;;;;5086264;28;20498;-86
2022/07/04 03:10:51;;;;;;;0.13;0.13;;;12.30;99.90;;;;;;5086919;28;20041;-86
2022/07/04 03:13:18;;;;;;;0.15;0.15;;;12.30;99.90;;;;;;5102434;28;20080;-86
2022/07/04 03:15:45;;;;;;;0.20;0.10;;;12.40;99.90;;;;;;5103454;28;20072;-86
2022/07/04 03:18:12;;;;;;;0.40;0.38;;;12.30;99.90;;;;;;5102986;28;20080;-85
2022/07/04 03:20:39;;;;;;;0.10;0.10;;;12.30;99.90;;;;;;5086670;28;20044;-85
2022/07/04 03:23:06;;;;;;;0.43;0.17;;;12.30;99.90;;;;;;5069577;28;20486;-86
2022/07/04 03:25:32;;;;;;;0.38;0.20;;;12.30;99.90;;;;;;5070002;28;20098;-86
2022/07/04 03:27:59;;;;;;;0.10;0.10;;;12.30;99.90;;;;;;5085939;28;20104;-86
2022/07/04 03:30:26;;;;;;;0.17;0.17;;;12.30;99.90;;;;;;5069648;28;20049;-85
2022/07/04 03:32:53;;;;;;;0.10;0.10;;;12.30;99.90;;;;;;5086895;28;20048;-86
2022/07/04 03:35:20;;;;;;;0.20;0.20;;;12.40;99.90;;;;;;5086117;28;20037;-86
2022/07/04 03:37:47;;;;;;;0.10;0.10;;;12.30;99.90;;;;;;5103393;28;20045;-86
2022/07/04 03:40:13;;;;;;;0.47;0.20;;;12.40;99.90;;;;;;5073114;28;20182;-86
2022/07/04 03:42:40;;;;;;;0.20;0.20;;;12.30;99.90;;;;;;5089572;28;20095;-86
2022/07/04 03:45:07;;;;;;;0.10;0.10;;;12.40;99.90;;;;;;5072983;28;20051;-85
2022/07/04 03:47:34;;;;;;;0.28;0.28;;;12.40;99.90;;;;;;5089950;28;20098;-85
2022/07/04 03:50:01;;;;;;;0.10;0.10;;;12.40;99.90;;;;;;5089931;28;20037;-85
2022/07/04 03:52:28;;;;;;;0.10;0.10;;;12.40;99.90;;;;;;5106155;28;20037;-85
2022/07/04 03:54:55;;;;;;;0.20;0.20;;;12.50;99.90;;;;;;5106982;28;20086;-86
2022/07/04 03:57:22;;;;;;;0.20;0.20;;;12.40;99.90;;;;;;5090085;28;20037;-85
2022/07/04 03:59:49;;;;;;;0.22;0.22;;;12.50;99.90;;;;;;5073563;28;20038;-85
2022/07/04 04:02:16;;;;;;;0.13;0.10;;;12.40;99.90;;;;;;5105817;28;20560;-86
2022/07/04 04:07:28;;;;;;;0.30;0.25;;;12.40;99.90;;;;;;5075306;28;20424;-86
2022/07/04 04:09:54;;;;;;;0.20;0.20;;;12.40;99.90;;;;;;5089785;28;20127;-86
2022/07/04 04:12:21;;;;;;;0.13;0.13;;;12.50;99.90;;;;;;5089663;28;20518;-86
2022/07/04 04:14:48;;;;;;;0.20;0.20;;;12.50;99.90;;;;;;5089315;28;20041;-86
2022/07/04 04:17:14;;;;;;;0.10;0.10;;;12.60;99.90;;;;;;5089757;28;20120;-85
2022/07/04 04:19:41;;;;;;;0.20;0.20;;;12.60;99.90;;;;;;5059919;28;20051;-86
2022/07/04 04:22:08;;;;;;;0.10;0.10;;;12.60;99.90;;;;;;5059245;28;20067;-86
2022/07/04 04:24:34;;;;;;;0.17;0.17;;;12.60;99.90;;;;;;5040239;28;20103;-86
2022/07/04 04:27:01;;;;;;;0.13;0.13;;;12.60;99.90;;;;;;5056407;28;20041;-86
2022/07/04 04:29:28;;;;;;;0.20;0.20;;;12.60;99.90;;;;;;5055295;28;20442;-86
2022/07/04 04:31:55;;;;;;;0.10;0.10;;;12.70;99.90;;;;;;5056015;28;20462;-86
2022/07/04 04:34:21;;;;;;;0.10;0.10;;;12.70;99.90;;;;;;5039711;28;20083;-86
2022/07/04 04:36:48;;;;;;;0.30;0.28;;;12.70;99.90;;;;;;5056014;28;20040;-86
2022/07/04 04:39:15;;;;;;;0.17;0.15;;;12.80;99.90;;;;;;5055772;28;20505;-86
2022/07/04 04:41:41;;;;;;;0.10;0.10;;;12.80;99.90;;;;;;5055542;28;20123;-86
2022/07/04 04:44:08;;;;;;;0.20;0.20;;;12.80;99.90;;;;;;5055113;28;20045;-86
2022/07/04 04:46:35;;;;;;;0.20;0.20;;;12.90;99.90;;;;;;5040192;28;20178;-87
2022/07/04 04:49:01;;;;;;;0.10;0.10;;;13.00;99.90;;;;;;5038872;28;20056;-86
2022/07/04 04:51:28;;;;;;;0.30;0.20;;;13.10;99.90;;;;;;5054934;28;20047;-86
2022/07/04 04:53:55;;;;;;;0.20;0.20;;;13.10;99.90;;;;;;5039220;28;20075;-86
2022/07/04 04:56:22;;;;;;;0.40;0.30;;;13.10;99.90;;;;;;5088347;28;20037;-86
2022/07/04 04:58:48;;;;;;;0.22;0.22;;;13.20;99.90;;;;;;5055397;28;20040;-86
2022/07/04 05:01:15;;;;;;;0.20;0.20;;;13.20;99.90;;;;;;5039253;28;20041;-86
2022/07/04 05:03:42;;;;;;;0.20;0.20;;;13.30;99.90;;;;;;5055618;28;20513;-86
2022/07/04 05:06:08;;;;;;;0.20;0.20;;;13.40;99.90;;;;;;5039286;28;20048;-86
2022/07/04 05:08:35;;;;;;;0.17;0.17;;;13.50;99.90;;;;;;5055414;28;20040;-87
2022/07/04 05:11:02;;;;;;;0.15;0.15;;;13.50;99.90;;;;;;5039230;28;20051;-86
2022/07/04 05:13:28;;;;;;;0.13;0.13;;;13.60;99.90;;;;;;5055448;28;20041;-86
2022/07/04 05:15:55;;;;;;;1.00;0.40;;;13.60;99.90;;;;;;5054983;28;20119;-86
2022/07/04 05:18:22;;;;;;;0.20;0.20;;;13.70;99.90;;;;;;5054827;28;20086;-86
2022/07/04 05:20:49;;;;;;;0.30;0.25;;;13.70;99.90;;;;;;5055126;28;20517;-86
2022/07/04 05:23:16;;;;;;;0.20;0.20;;;13.70;99.90;;;;;;5054611;28;20521;-86
2022/07/04 05:25:42;;;;;;;0.40;0.25;;;13.80;99.90;;;;;;5055564;28;20044;-86
2022/07/04 05:28:09;;;;;;;0.20;0.20;;;13.80;99.90;;;;;;5071656;28;20041;-87
2022/07/04 05:30:36;;;;;;;1.05;0.28;;;13.90;99.90;;;;;;5054201;28;20057;-87
2022/07/04 05:33:03;;;;;;;0.28;0.25;;;14.00;99.90;;;;;;5071069;28;20047;-86
2022/07/04 05:35:30;;;;;;;0.10;0.10;;;14.00;99.90;;;;;;5071021;28;20033;-86
2022/07/04 05:37:57;;;;;;;0.13;0.10;;;14.00;99.90;;;;;;5071668;28;20041;-86
2022/07/04 05:40:23;;;;;;;0.10;0.10;;;14.10;99.90;;;;;;5071340;28;20099;-86
2022/07/04 05:42:50;;;;;;;0.15;0.15;;;14.20;99.90;;;;;;5071069;28;20080;-86
2022/07/04 05:45:17;;;;;;;0.15;0.15;;;14.20;99.90;;;;;;5038462;28;20437;-86
2022/07/04 05:47:47;;;;;;;0.30;0.20;;;14.30;99.90;;;;;;5038126;28;20406;-87
2022/07/04 05:50:13;;;;;;;0.30;0.20;;;14.40;99.90;;;;;;5054799;28;20504;-86
2022/07/04 05:52:40;;;;;;;0.47;0.30;;;14.50;99.90;;;;;;5071074;28;20033;-86
2022/07/04 05:55:07;;;;;;;0.30;0.20;;;14.50;99.90;;;;;;5054575;28;20037;-86
2022/07/04 05:57:34;;;;;;;0.38;0.20;;;14.60;99.90;;;;;;5054693;28;20409;-86
2022/07/04 06:00:03;;;;;;;0.20;0.20;;;14.80;99.90;;;;;;5054334;28;20044;-86
2022/07/04 06:02:29;;;;;;;0.20;0.20;;;14.90;99.90;;;;;;5064105;28;20044;-86
2022/07/04 06:04:56;;;;;;;0.35;0.35;;;15.00;99.90;;;;;;5037898;28;20036;-86
2022/07/04 06:07:23;;;;;;;0.10;0.10;;;15.10;99.90;;;;;;5054452;28;20041;-88
2022/07/04 06:09:50;;;;;;;0.68;0.32;;;15.10;99.90;;;;;;5070961;28;20052;-86
2022/07/04 06:12:16;;;;;;;0.15;0.15;;;15.20;99.90;;;;;;5054099;28;20128;-87
2022/07/04 06:14:43;;;;;;;0.30;0.30;;;15.10;99.90;;;;;;5037500;28;20037;-87
2022/07/04 06:17:10;;;;;;;0.32;0.30;;;15.20;99.90;;;;;;5087380;28;20041;-87
2022/07/04 06:19:37;;;;;;;0.45;0.30;;;15.30;99.90;;;;;;5095781;28;20044;-87
2022/07/04 06:22:04;;;;;;;0.38;0.20;;;15.40;99.90;;;;;;5074979;28;20044;-87
2022/07/04 06:24:30;;;;;;;0.32;0.30;;;15.50;99.90;;;;;;5079079;28;20116;-86
2022/07/04 06:26:57;;;;;;;0.32;0.32;;;15.50;99.90;;;;;;5041455;28;20049;-86
2022/07/04 06:29:24;;;;;;;0.10;0.10;;;15.80;99.90;;;;;;5069861;28;20053;-86
2022/07/04 06:31:50;;;;;;;0.20;0.20;;;15.80;99.90;;;;;;5037570;28;20045;-88
2022/07/04 06:37:02;;;;;;;0.55;0.35;;;16.00;99.90;;;;;;5070120;28;20047;-86
2022/07/04 06:39:29;;;;;;;0.20;0.20;;;16.10;99.90;;;;;;5042537;28;20494;-85
2022/07/04 06:41:56;;;;;;;0.10;0.10;;;16.30;99.90;;;;;;5070603;28;20037;-85
2022/07/04 06:44:23;;;;;;;0.40;0.30;;;16.40;99.90;;;;;;5037009;28;20052;-86
2022/07/04 06:46:50;;;;;;;0.20;0.20;;;16.50;99.90;;;;;;5037203;28;20037;-84
2022/07/04 06:49:17;;;;;;;0.50;0.30;;;16.60;99.90;;;;;;5053421;28;20041;-87
2022/07/04 06:51:46;;;;;;;0.30;0.30;;;16.70;99.90;;;;;;5086366;28;20044;-85
2022/07/04 06:54:13;;;;;;;0.20;0.20;;;16.70;99.90;;;;;;5036729;28;20033;-85
2022/07/04 06:56:40;;;;;;;0.65;0.25;;;16.80;99.90;;;;;;5037344;28;20044;-86
2022/07/04 06:59:06;;;;;;;0.13;0.13;;;16.90;99.90;;;;;;5070486;28;20118;-86
2022/07/04 07:01:33;;;;;;;0.20;0.20;;;17.00;99.90;;;;;;5069821;28;20049;-86
2022/07/04 07:04:00;;;;;;;0.17;0.17;;;17.00;99.90;;;;;;5053507;28;20045;-84
2022/07/04 07:06:26;;;;;;;0.52;0.30;;;17.10;99.90;;;;;;5069675;28;20044;-85
2022/07/04 07:08:53;;;;;;;0.77;0.47;;;17.20;99.90;;;;;;5069433;28;20514;-85
2022/07/04 07:11:20;;;;;;;0.17;0.17;;;17.20;99.90;;;;;;5069383;28;20119;-86
2022/07/04 07:13:50;;;;;;;0.52;0.38;;;17.30;99.90;;;;;;5039127;28;20075;-85
2022/07/04 07:16:18;;;;;;;0.43;0.30;;;17.30;99.90;;;;;;5072944;28;20506;-86
2022/07/04 07:18:46;;;;;;;0.15;0.15;;;17.40;99.90;;;;;;5056698;28;20068;-86
2022/07/04 07:21:12;;;;;;;0.17;0.17;;;17.50;99.90;;;;;;5059662;28;20044;-86
2022/07/04 07:23:40;;;;;;;0.32;0.20;;;17.50;99.90;;;;;;5091214;28;20037;-85
2022/07/04 07:26:08;;;;;;;0.10;0.10;;;17.60;99.90;;;;;;5072887;28;20041;-86
2022/07/04 07:28:35;;;;;;;0.98;0.30;;;17.60;99.90;;;;;;5089536;28;20037;-86
2022/07/04 07:31:02;;;;;;;0.30;0.30;;;17.70;99.90;;;;;;5063783;28;20512;-87
2022/07/04 07:33:29;;;;;;;0.32;0.20;;;17.70;99.90;;;;;;5080045;28;20122;-85
2022/07/04 07:35:57;;;;;;;0.10;0.10;;;17.70;99.90;;;;;;5081241;28;20077;-82
2022/07/04 07:38:24;;;;;;;0.10;0.10;;;17.80;99.90;;;;;;5096640;28;20047;-84
2022/07/04 07:40:51;;;;;;;0.20;0.20;;;17.90;99.90;;;;;;5080306;28;20040;-90
2022/07/04 07:43:18;;;;;;;0.10;0.10;;;18.00;99.90;;;;;;5057782;28;20467;-91
2022/07/04 07:45:45;;;;;;;0.43;0.30;;;18.10;99.90;;;;;;5043325;28;20040;-83
2022/07/04 07:48:11;;;;;;;0.20;0.20;;;18.30;99.90;;;;;;5042704;28;20036;-82
2022/07/04 07:50:38;;;;;;;0.30;0.30;;;18.40;99.90;;;;;;5044121;28;20044;-89
2022/07/04 07:53:05;;;;;;;0.75;0.35;;;18.40;99.90;;;;;;5077029;28;20048;-88
2022/07/04 07:55:32;;;;;;;1.85;0.60;;;18.30;99.90;;;;;;5065125;28;20198;-89
2022/07/04 07:57:59;;;;;;;0.20;0.20;;;18.40;99.90;;;;;;5077037;28;20037;-83
2022/07/04 08:00:26;;;;;;;0.15;0.15;;;18.40;99.90;;;;;;5060076;28;20047;-84
2022/07/04 08:05:40;;;;;;;0.32;0.22;;;18.80;99.90;;;;;;5085394;28;20051;-90
2022/07/04 08:08:07;;;;;;;0.70;0.43;;;19.10;99.90;;;;;;5062323;28;20039;-84
2022/07/04 08:10:33;;;;;;;1.13;0.40;;;19.20;99.90;;;;;;5062780;28;20040;-86
2022/07/04 08:13:00;;;;;;;0.10;0.10;;;19.00;99.90;;;;;;5061661;28;20490;-84
2022/07/04 08:15:27;;;;;;;0.50;0.30;;;19.00;99.90;;;;;;5062075;28;20051;-86
2022/07/04 08:17:53;;;;;;;0.40;0.32;;;19.00;99.90;;;;;;5079479;28;20063;-87
2022/07/04 08:20:20;;;;;;;0.50;0.32;;;19.10;99.90;;;;;;5062818;28;20051;-86
2022/07/04 08:22:48;;;;;;;0.10;0.10;;;19.20;99.90;;;;;;5075136;28;20463;-90
2022/07/04 08:25:16;;;;;;;0.10;0.10;;;19.20;99.90;;;;;;5059527;28;20041;-92
2022/07/04 08:27:43;;;;;;;0.00;0.00;;;19.00;99.90;;;;;;5092393;28;20049;-89
2022/07/04 08:30:10;;;;;;;0.45;0.30;;;19.20;99.90;;;;;;5056129;28;20500;-88
2022/07/04 08:32:37;;;;;;;0.20;0.20;;;19.30;99.90;;;;;;5112693;28;20040;-91
2022/07/04 08:35:04;;;;;;;0.63;0.30;;;19.30;99.90;;;;;;5096349;28;20036;-91
2022/07/04 08:37:31;;;;;;;0.35;0.20;;;19.50;99.90;;;;;;5079399;28;20074;-92
2022/07/04 08:39:58;;;;;;;0.75;0.30;;;19.80;99.90;;;;;;5095467;28;20076;-89
2022/07/04 08:42:24;;;;;;;0.20;0.20;;;20.00;99.90;;;;;;5059369;28;20066;-87
2022/07/04 08:45:14;;;;;;;0.08;0.08;;;20.00;99.90;;;;;;5043190;28;20041;-88
2022/07/04 08:47:53;;;;;;;0.10;0.10;;;19.90;99.90;;;;;;5076793;28;20089;-87
2022/07/04 08:50:30;;;;;;;0.10;0.10;;;19.70;99.90;;;;;;5075511;28;20079;-87
2022/07/04 08:53:03;;;;;;;0.20;0.20;;;19.50;99.90;;;;;;5075094;28;20109;-87
2022/07/04 08:58:31;;;;;;;0.10;0.10;;;19.40;99.90;;;;;;5064136;28;20052;-87
2022/07/04 09:01:03;;;;;;;0.32;0.25;;;19.20;99.90;;;;;;5075288;28;20048;-87
2022/07/04 09:03:31;;;;;;;0.13;0.10;;;19.10;99.90;;;;;;5092315;28;20037;-87
2022/07/04 09:05:58;;;;;;;1.48;0.45;;;19.00;99.90;;;;;;5042671;28;20044;-90
2022/07/04 09:08:25;;;;;;;0.30;0.30;;;19.00;99.90;;;;;;5067851;28;20082;-87
2022/07/04 09:10:53;;;;;;;0.10;0.10;;;19.00;99.90;;;;;;5091371;28;20038;-87
2022/07/04 09:13:20;;;;;;;0.20;0.10;;;19.00;99.90;;;;;;5075295;28;20040;-88
2022/07/04 09:15:50;;;;;;;0.20;0.20;;;19.00;99.90;;;;;;5091438;28;20572;-88
2022/07/04 09:18:33;;;;;;;0.20;0.20;;;18.90;99.90;;;;;;5108166;28;20048;-91
2022/07/04 09:21:02;;;;;;;0.20;0.20;;;18.90;99.90;;;;;;5108701;28;20448;-92
2022/07/04 09:23:49;;;;;;;0.32;0.13;;;18.80;99.90;;;;;;5083247;28;20120;-88
2022/07/04 09:26:19;;;;;;;0.10;0.10;;;18.80;99.90;;;;;;5058398;28;20052;-91
2022/07/04 09:28:57;;;;;;;1.55;0.40;;;18.70;99.90;;;;;;5074271;28;20576;-91
2022/07/04 09:31:25;;;;;;;0.55;0.20;;;18.60;99.90;;;;;;5075333;28;20044;-88
2022/07/04 09:33:55;;;;;;;0.20;0.20;;;18.50;99.90;;;;;;5074385;28;20125;-91
2022/07/04 09:36:23;;;;;;;0.15;0.15;;;18.50;99.90;;;;;;5090743;28;20413;-92
2022/07/04 09:39:18;;;;;;;0.10;0.10;;;18.30;99.90;;;;;;5069405;28;20040;-88
2022/07/04 09:41:58;;;;;;;0.17;0.17;;;18.20;99.90;;;;;;5101211;28;20031;-89
2022/07/04 09:44:28;;;;;;;0.20;0.20;;;18.10;99.90;;;;;;5108439;28;20048;-89
2022/07/04 09:46:56;;;;;;;0.10;0.10;;;18.30;99.90;;;;;;5107593;28;20474;-89
2022/07/04 09:49:23;;;;;;;0.15;0.10;;;18.40;99.90;;;;;;5077410;28;20044;-89
2022/07/04 09:51:54;;;;;;;0.20;0.20;;;18.40;99.90;;;;;;5078142;28;20040;-88
2022/07/04 09:54:31;;;;;;;0.10;0.10;;;18.50;99.90;;;;;;5058305;28;20037;-86
2022/07/04 09:57:00;;;;;;;0.08;0.08;;;18.80;99.90;;;;;;5073444;28;20045;-88
2022/07/04 09:59:27;;;;;;;0.13;0.10;;;19.00;99.90;;;;;;5057844;28;20081;-86
2022/07/04 10:02:11;;;;;;;0.13;0.10;;;19.30;99.90;;;;;;5040657;28;20040;-85
2022/07/04 10:04:52;;;;;;;0.10;0.10;;;19.60;99.90;;;;;;5093025;28;20044;-86
2022/07/04 10:07:48;;;;;;;0.10;0.10;;;19.60;99.90;;;;;;5075902;28;20055;-88
2022/07/04 10:10:24;;;;;;;0.13;0.10;;;19.50;99.90;;;;;;5062455;28;20055;-87
2022/07/04 10:12:53;;;;;;;0.30;0.22;;;19.30;99.90;;;;;;5056744;28;20068;-85
2022/07/04 10:15:21;;;;;;;0.20;0.20;;;19.10;99.90;;;;;;5078905;28;20405;-86
2022/07/04 10:17:48;;;;;;;0.50;0.20;;;19.00;99.90;;;;;;5090042;28;20039;-85
2022/07/04 10:20:15;;;;;;;0.08;0.08;;;18.90;99.90;;;;;;5075116;28;20040;-85
2022/07/04 10:22:42;;;;;;;0.35;0.30;;;18.90;99.90;;;;;;5099551;28;20040;-87
2022/07/04 10:25:09;;;;;;;0.77;0.28;;;18.90;99.90;;;;;;5093699;28;20515;-85
2022/07/04 10:27:37;;;;;;;0.20;0.10;;;18.90;99.90;;;;;;5109818;28;20037;-88
2022/07/04 10:30:07;;;;;;;0.00;0.00;;;19.00;99.90;;;;;;5110968;28;20122;-86
2022/07/04 10:32:34;;;;;;;0.32;0.20;;;19.20;99.90;;;;;;5083020;28;20028;-85
2022/07/04 10:35:02;;;;;;;0.10;0.10;;;19.70;99.90;;;;;;5105234;28;20059;-86
2022/07/04 10:38:09;;;;;;;0.30;0.30;;;20.20;99.90;;;;;;5057075;28;20044;-84
2022/07/04 10:40:44;;;;;;;1.48;0.47;;;20.40;99.90;;;;;;5074039;28;20047;-88
2022/07/04 10:43:42;;;;;;;0.10;0.10;;;20.80;99.90;;;;;;5082432;28;20043;-89
2022/07/04 10:46:15;;;;;;;0.15;0.15;;;21.20;99.90;;;;;;5072877;28;20124;-88
2022/07/04 10:48:49;;;;;;;0.25;0.17;;;21.10;99.90;;;;;;5089486;28;20044;-88
2022/07/04 10:51:32;;;;;;;0.10;0.10;;;21.10;99.90;;;;;;5087516;28;20512;-83
2022/07/04 10:54:02;;;;;;;0.15;0.15;;;20.80;99.90;;;;;;5078071;28;20044;-82
2022/07/04 10:56:29;;;;;;;0.00;0.00;;;20.80;99.90;;;;;;5090600;28;20036;-86
2022/07/04 10:58:59;;;;;;;0.40;0.22;;;20.90;99.90;;;;;;5087771;28;20035;-82
2022/07/04 11:01:25;;;;;;;0.10;0.10;;;21.00;99.90;;;;;;5097813;28;20562;-84
2022/07/04 11:03:53;;;;;;;0.10;0.10;;;21.00;99.90;;;;;;5087612;28;20041;-82
2022/07/04 11:06:32;;;;;;;0.10;0.10;;;21.10;99.90;;;;;;5096199;28;20032;-85
2022/07/04 11:09:20;;;;;;;0.13;0.13;;;21.10;99.90;;;;;;5146071;28;20040;-85
2022/07/04 11:11:59;;;;;;;0.47;0.40;;;21.20;99.90;;;;;;5092592;28;20036;-82
2022/07/04 11:14:38;;;;;;;0.10;0.10;;;21.40;99.90;;;;;;5076320;28;20048;-85
2022/07/04 11:17:32;;;;;;;0.10;0.10;;;21.30;99.90;;;;;;5095880;28;20507;-85
2022/07/04 11:20:03;;;;;;;0.15;0.10;;;21.10;99.90;;;;;;5096502;28;20507;-85
2022/07/04 11:22:30;;;;;;;0.28;0.20;;;20.90;99.90;;;;;;5113475;28;20040;-81
2022/07/04 11:24:57;;;;;;;0.10;0.10;;;21.00;99.90;;;;;;5129689;28;20390;-82
2022/07/04 11:27:23;;;;;;;1.55;0.28;;;21.10;99.90;;;;;;5100343;28;20043;-85
2022/07/04 11:29:55;;;;;;;0.20;0.20;;;21.10;99.90;;;;;;5075574;28;20059;-85
2022/07/04 11:32:30;;;;;;;0.13;0.13;;;21.30;99.90;;;;;;5076186;28;20401;-85
2022/07/04 11:34:57;;;;;;;0.20;0.20;;;21.30;99.90;;;;;;5092226;28;20044;-85
2022/07/04 11:37:24;;;;;;;0.32;0.20;;;21.50;99.90;;;;;;5059719;28;20024;-82
2022/07/04 11:39:51;;;;;;;0.25;0.20;;;21.60;99.90;;;;;;5075650;28;20578;-84
2022/07/04 11:45:05;;;;;;;0.15;0.08;;;21.30;99.90;;;;;;5098624;28;20051;-85
2022/07/04 11:47:39;;;;;;;0.35;0.20;;;21.10;99.90;;;;;;5112769;28;20871;-82
2022/07/04 11:50:14;;;;;;;0.10;0.10;;;20.90;99.90;;;;;;5089083;28;20044;-85
2022/07/04 11:52:43;;;;;;;0.10;0.10;;;21.10;99.90;;;;;;5075613;28;20040;-82
2022/07/04 11:55:13;;;;;;;0.38;0.30;;;21.20;99.90;;;;;;5075786;28;20089;-85
2022/07/04 11:57:52;;;;;;;0.20;0.20;;;21.30;99.90;;;;;;5084630;28;20036;-86
2022/07/04 12:00:20;;;;;;;0.10;0.10;;;21.50;99.90;;;;;;5075227;28;20051;-86
2022/07/04 12:02:48;;;;;;;0.28;0.20;;;21.60;99.90;;;;;;5058528;28;20048;-84
2022/07/04 12:05:16;;;;;;;0.00;0.00;;;21.60;99.90;;;;;;5075074;28;20041;-81
2022/07/04 12:07:46;;;;;;;0.52;0.35;;;21.50;99.90;;;;;;5082357;28;20412;-82
2022/07/04 12:10:13;;;;;;;0.10;0.10;;;21.10;99.90;;;;;;5091981;28;20123;-85
2022/07/04 12:12:53;;;;;;;0.15;0.15;;;21.00;99.90;;;;;;5107032;28;20505;-85
2022/07/04 12:15:22;;;;;;;0.28;0.28;;;20.90;99.90;;;;;;5099456;28;20059;-82
2022/07/04 12:17:54;;;;;;;0.28;0.20;;;21.10;99.90;;;;;;5075193;28;20048;-82
2022/07/04 12:20:23;;;;;;;0.10;0.10;;;21.30;99.90;;;;;;5108392;28;20037;-82
2022/07/04 12:22:57;;;;;;;0.10;0.10;;;21.60;99.90;;;;;;5091570;28;20069;-81
2022/07/04 12:25:38;;;;;;;0.10;0.10;;;21.90;99.90;;;;;;5075122;28;20045;-82
2022/07/04 12:28:07;;;;;;;0.20;0.20;;;22.00;99.90;;;;;;5110922;28;20467;-83
2022/07/04 12:30:39;;;;;;;0.30;0.30;;;22.20;99.90;;;;;;5078510;28;20055;-87
2022/07/04 12:33:07;;;;;;;0.10;0.10;;;22.10;99.90;;;;;;5095232;28;20128;-82
2022/07/04 12:35:47;;;;;;;0.20;0.20;;;22.20;99.90;;;;;;5095762;28;20070;-82
2022/07/04 12:38:34;;;;;;;0.10;0.10;;;22.20;99.90;;;;;;5129027;28;20040;-82
2022/07/04 12:41:02;;;;;;;0.10;0.10;;;22.20;99.90;;;;;;5072252;28;20067;-88
2022/07/04 12:43:44;;;;;;;0.20;0.10;;;22.30;99.90;;;;;;5092017;28;20044;-89
2022/07/04 12:46:28;;;;;;;0.05;0.05;;;22.20;99.90;;;;;;5091921;28;20040;-85
2022/07/04 12:48:56;;;;;;;0.20;0.20;;;22.10;99.90;;;;;;5074521;28;20037;-81
2022/07/04 12:51:26;;;;;;;0.20;0.20;;;22.10;99.90;;;;;;5074974;28;20051;-83
2022/07/04 12:53:55;;;;;;;0.00;0.00;;;22.00;99.90;;;;;;5074298;28;20040;-85
2022/07/04 12:56:31;;;;;;;0.05;0.05;;;22.10;99.80;;;;;;5074325;28;20507;-82
2022/07/04 12:59:02;;;;;;;0.40;0.20;;;21.80;99.90;;;;;;5090810;28;20041;-85
2022/07/04 13:01:29;;;;;;;0.10;0.10;;;21.60;99.90;;;;;;5074577;28;20036;-81
2022/07/04 13:03:57;;;;;;;0.10;0.10;;;21.60;99.90;;;;;;5074143;28;20139;-82
2022/07/04 13:06:25;;;;;;;0.55;0.20;;;21.80;99.90;;;;;;5093211;28;20041;-80
2022/07/04 13:08:52;;;;;;;0.10;0.10;;;21.90;99.90;;;;;;5106644;28;20075;-80
2022/07/04 13:14:05;;;;;;;0.25;0.20;;;21.90;99.90;;;;;;5090401;28;20536;-80
2022/07/04 13:16:32;;;;;;;0.10;0.10;;;22.00;99.90;;;;;;5057649;28;20067;-84